createdAt,value
2018-11-07T00:00:44.270Z,36.67
2018-11-07T00:03:12.304Z,35.90
2018-11-07T00:05:40.401Z,36.13
2018-11-07T00:08:08.646Z,42.27
2018-11-07T00:10:36.626Z,42.50
2018-11-07T00:13:04.823Z,42.60
2018-11-07T00:15:32.963Z,39.73
2018-11-07T00:18:01.085Z,39.00
2018-11-07T00:20:29.432Z,39.17
2018-11-07T00:22:57.792Z,41.37
2018-11-07T00:25:25.839Z,45.27
2018-11-07T00:27:53.871Z,33.33
2018-11-07T00:30:22.011Z,37.73
2018-11-07T00:32:50.068Z,43.63
2018-11-07T00:35:18.162Z,35.47
2018-11-07T00:37:46.263Z,33.80
2018-11-07T00:40:14.282Z,37.33
2018-11-07T00:42:42.368Z,35.50
2018-11-07T00:45:11.810Z,36.63
2018-11-07T00:47:39.886Z,34.83
2018-11-07T00:50:11.635Z,33.95
2018-11-07T00:52:40.154Z,33.90
2018-11-07T00:55:08.173Z,34.10
2018-11-07T00:57:36.234Z,32.37
2018-11-07T01:00:07.130Z,34.67
2018-11-07T01:02:35.151Z,32.87
2018-11-07T01:05:03.180Z,32.03
2018-11-07T01:07:31.215Z,40.67
2018-11-07T01:09:59.783Z,40.60
2018-11-07T01:12:27.843Z,40.13
2018-11-07T01:14:55.843Z,40.97
2018-11-07T01:17:23.891Z,29.83
2018-11-07T01:19:51.932Z,42.77
2018-11-07T01:22:20.030Z,37.07
2018-11-07T01:24:48.221Z,30.00
2018-11-07T01:27:16.280Z,36.13
2018-11-07T01:29:44.349Z,34.27
2018-11-07T01:32:12.393Z,34.03
2018-11-07T01:34:40.514Z,35.63
2018-11-07T01:37:08.567Z,40.07
2018-11-07T01:39:36.650Z,33.90
2018-11-07T01:42:04.829Z,44.80
2018-11-07T01:44:32.831Z,39.03
2018-11-07T01:47:00.970Z,36.70
2018-11-07T01:49:29.011Z,45.13
2018-11-07T01:51:57.092Z,47.10
2018-11-07T01:54:25.424Z,34.57
2018-11-07T01:56:53.870Z,41.00
2018-11-07T01:59:22.526Z,45.13
2018-11-07T02:01:51.008Z,43.33
2018-11-07T02:04:19.108Z,44.87
2018-11-07T02:06:47.146Z,46.80
2018-11-07T02:09:15.352Z,47.87
2018-11-07T02:11:43.394Z,40.47
2018-11-07T02:14:11.494Z,49.80
2018-11-07T02:16:39.762Z,49.77
2018-11-07T02:19:07.824Z,56.13
2018-11-07T02:21:35.899Z,49.50
2018-11-07T02:24:04.175Z,44.20
2018-11-07T02:26:32.323Z,46.07
2018-11-07T02:29:00.269Z,54.23
2018-11-07T02:31:28.403Z,47.70
2018-11-07T02:33:56.426Z,45.47
2018-11-07T02:36:24.414Z,41.00
2018-11-07T02:38:52.451Z,46.40
2018-11-07T02:41:20.486Z,38.40
2018-11-07T02:43:48.606Z,39.97
2018-11-07T02:46:16.691Z,39.50
2018-11-07T02:48:44.721Z,42.90
2018-11-07T02:51:12.766Z,46.60
2018-11-07T02:53:41.213Z,41.97
2018-11-07T02:56:09.343Z,49.87
2018-11-07T02:58:37.517Z,48.83
2018-11-07T03:01:05.655Z,40.33
2018-11-07T03:03:33.615Z,44.10
2018-11-07T03:06:01.604Z,40.53
2018-11-07T03:08:32.951Z,43.50
2018-11-07T03:11:01.821Z,42.87
2018-11-07T03:13:29.795Z,37.07
2018-11-07T03:15:57.967Z,46.17
2018-11-07T03:18:25.995Z,34.30
2018-11-07T03:20:54.098Z,43.67
2018-11-07T03:23:22.447Z,40.83
2018-11-07T03:25:50.445Z,40.70
2018-11-07T03:28:18.481Z,38.13
2018-11-07T03:30:46.538Z,39.57
2018-11-07T03:33:14.559Z,39.07
2018-11-07T03:35:42.641Z,41.40
2018-11-07T03:38:10.734Z,38.07
2018-11-07T03:40:38.802Z,37.63
2018-11-07T03:43:07.029Z,35.83
2018-11-07T03:45:40.395Z,37.07
2018-11-07T03:48:08.452Z,35.00
2018-11-07T03:50:36.551Z,33.73
2018-11-07T03:53:04.842Z,37.90
2018-11-07T03:55:32.950Z,39.87
2018-11-07T04:00:59.903Z,37.30
2018-11-07T04:03:28.032Z,35.03
2018-11-07T04:05:56.040Z,33.10
2018-11-07T04:08:24.335Z,37.10
2018-11-07T04:10:52.373Z,34.13
2018-11-07T04:13:20.518Z,33.67
2018-11-07T04:15:48.944Z,36.43
2018-11-07T04:18:17.167Z,37.17
2018-11-07T04:20:45.202Z,32.10
2018-11-07T04:23:13.260Z,39.00
2018-11-07T04:25:41.303Z,39.97
2018-11-07T04:28:09.316Z,33.67
2018-11-07T04:30:37.591Z,36.90
2018-11-07T04:33:05.694Z,34.90
2018-11-07T04:35:33.725Z,35.57
2018-11-07T04:38:02.019Z,32.90
2018-11-07T04:40:30.064Z,33.57
2018-11-07T04:42:58.093Z,38.20
2018-11-07T04:45:26.148Z,41.47
2018-11-07T04:47:54.183Z,37.30
2018-11-07T04:50:22.231Z,37.97
2018-11-07T04:52:50.272Z,36.13
2018-11-07T04:55:18.295Z,33.57
2018-11-07T04:57:46.436Z,34.43
2018-11-07T05:00:15.996Z,36.67
2018-11-07T05:02:44.056Z,37.93
2018-11-07T05:05:12.259Z,30.00
2018-11-07T05:07:40.381Z,36.93
2018-11-07T05:10:09.548Z,32.77
2018-11-07T05:12:37.755Z,40.77
2018-11-07T05:15:06.464Z,33.63
2018-11-07T05:17:34.510Z,42.10
2018-11-07T05:20:02.733Z,36.13
2018-11-07T05:22:30.828Z,37.53
2018-11-07T05:24:58.828Z,44.33
2018-11-07T05:27:27.322Z,32.23
2018-11-07T05:29:55.596Z,40.67
2018-11-07T05:32:23.657Z,35.10
2018-11-07T05:34:51.719Z,35.30
2018-11-07T05:37:19.808Z,38.70
2018-11-07T05:39:48.533Z,43.30
2018-11-07T05:42:16.552Z,35.07
2018-11-07T05:44:45.129Z,51.87
2018-11-07T05:47:13.184Z,41.97
2018-11-07T05:49:41.388Z,45.60
2018-11-07T05:52:09.556Z,42.77
2018-11-07T05:54:37.743Z,39.30
2018-11-07T05:57:05.799Z,39.87
2018-11-07T05:59:33.858Z,37.27
2018-11-07T06:02:02.172Z,37.13
2018-11-07T06:04:30.218Z,42.57
2018-11-07T06:06:58.514Z,43.40
2018-11-07T06:09:26.532Z,37.63
2018-11-07T06:11:54.525Z,38.07
2018-11-07T06:14:22.639Z,35.23
2018-11-07T06:16:50.660Z,39.73
2018-11-07T06:19:18.668Z,39.33
2018-11-07T06:21:47.169Z,34.10
2018-11-07T06:24:15.433Z,47.37
2018-11-07T06:26:43.460Z,35.90
2018-11-07T06:29:11.484Z,39.73
2018-11-07T06:31:39.627Z,40.60
2018-11-07T06:34:07.704Z,37.80
2018-11-07T06:36:35.973Z,42.03
2018-11-07T06:39:06.194Z,35.87
2018-11-07T06:41:34.236Z,34.60
2018-11-07T06:44:02.447Z,33.90
2018-11-07T06:46:30.513Z,33.87
2018-11-07T06:48:58.900Z,38.37
2018-11-07T06:51:27.063Z,39.33
2018-11-07T06:53:55.183Z,33.77
2018-11-07T06:56:23.808Z,32.30
2018-11-07T06:58:51.817Z,33.67
2018-11-07T07:01:19.896Z,32.73
2018-11-07T07:03:48.160Z,37.40
2018-11-07T07:06:16.216Z,36.23
2018-11-07T07:08:44.367Z,33.40
2018-11-07T07:11:12.427Z,30.17
2018-11-07T07:13:40.444Z,31.87
2018-11-07T07:16:08.495Z,32.97
2018-11-07T07:18:36.562Z,27.87
2018-11-07T07:21:04.964Z,36.07
2018-11-07T07:23:33.127Z,29.13
2018-11-07T07:26:01.388Z,30.12
2018-11-07T07:28:29.588Z,35.13
2018-11-07T07:30:57.631Z,29.55
2018-11-07T07:33:26.031Z,30.97
2018-11-07T07:35:54.052Z,36.58
2018-11-07T07:38:22.075Z,30.35
2018-11-07T07:40:50.332Z,34.78
2018-11-07T07:43:18.398Z,30.20
2018-11-07T07:45:46.509Z,35.17
2018-11-07T07:48:14.580Z,33.67
2018-11-07T07:53:16.472Z,32.13
2018-11-07T07:55:44.467Z,31.70
2018-11-07T07:58:12.496Z,33.25
2018-11-07T08:00:40.840Z,32.17
2018-11-07T08:03:08.865Z,32.17
2018-11-07T08:05:37.267Z,31.27
2018-11-07T08:08:05.682Z,27.35
2018-11-07T08:10:33.740Z,31.40
2018-11-07T08:13:01.809Z,30.27
2018-11-07T08:15:29.867Z,32.67
2018-11-07T08:17:57.903Z,33.48
2018-11-07T08:20:25.931Z,31.75
2018-11-07T08:22:54.675Z,48.75
2018-11-07T08:25:22.715Z,26.17
2018-11-07T08:27:50.752Z,34.75
2018-11-07T08:30:20.350Z,33.77
2018-11-07T08:32:48.415Z,29.77
2018-11-07T08:35:16.699Z,36.17
2018-11-07T08:37:45.828Z,29.98
2018-11-07T08:40:16.011Z,30.60
2018-11-07T08:42:44.191Z,31.52
2018-11-07T08:45:12.979Z,35.90
2018-11-07T08:47:41.744Z,36.58
2018-11-07T08:50:12.011Z,27.85
2018-11-07T08:52:40.163Z,29.37
2018-11-07T08:55:10.259Z,33.88
2018-11-07T08:57:38.355Z,33.20
2018-11-07T09:00:11.453Z,30.72
2018-11-07T09:02:39.820Z,39.55
2018-11-07T09:05:08.278Z,29.15
2018-11-07T09:07:37.553Z,33.50
2018-11-07T09:10:07.387Z,32.95
2018-11-07T09:12:35.460Z,38.23
2018-11-07T09:15:03.523Z,35.52
2018-11-07T09:17:31.534Z,32.38
2018-11-07T09:20:00.522Z,41.30
2018-11-07T09:22:28.687Z,35.25
2018-11-07T09:24:56.783Z,37.00
2018-11-07T09:27:25.048Z,33.18
2018-11-07T09:29:53.224Z,38.50
2018-11-07T09:32:21.428Z,30.97
2018-11-07T09:34:49.599Z,32.98
2018-11-07T09:37:17.683Z,34.83
2018-11-07T09:39:45.725Z,33.78
2018-11-07T09:42:13.877Z,33.00
2018-11-07T09:44:41.883Z,35.98
2018-11-07T09:47:09.904Z,43.00
2018-11-07T09:49:38.207Z,33.23
2018-11-07T09:52:06.430Z,35.30
2018-11-07T09:54:34.646Z,32.30
2018-11-07T09:57:03.119Z,32.58
2018-11-07T09:59:31.182Z,30.88
2018-11-07T10:01:59.170Z,34.78
2018-11-07T10:04:27.351Z,31.73
2018-11-07T10:06:55.425Z,39.75
2018-11-07T10:09:23.843Z,38.58
2018-11-07T10:11:51.876Z,41.70
2018-11-07T10:14:20.028Z,32.28
2018-11-07T10:16:48.112Z,37.70
2018-11-07T10:19:16.354Z,31.30
2018-11-07T10:21:44.392Z,32.38
2018-11-07T10:24:12.424Z,37.60
2018-11-07T10:26:40.843Z,40.33
2018-11-07T10:29:09.153Z,43.70
2018-11-07T10:31:36.931Z,42.43
2018-11-07T10:34:05.592Z,37.98
2018-11-07T10:36:33.594Z,35.63
2018-11-07T10:39:01.735Z,34.90
2018-11-07T10:41:29.831Z,37.10
2018-11-07T10:43:57.936Z,37.60
2018-11-07T10:46:25.977Z,38.60
2018-11-07T10:48:54.475Z,40.28
2018-11-07T10:51:22.502Z,40.08
2018-11-07T10:53:50.671Z,37.25
2018-11-07T10:56:18.750Z,44.53
2018-11-07T10:58:46.820Z,38.90
2018-11-07T11:01:20.184Z,38.07
2018-11-07T11:03:48.214Z,41.50
2018-11-07T11:06:16.272Z,37.42
2018-11-07T11:08:44.696Z,40.15
2018-11-07T11:11:12.944Z,36.65
2018-11-07T11:13:41.223Z,39.55
2018-11-07T11:16:09.492Z,43.33
2018-11-07T11:18:37.577Z,47.27
2018-11-07T11:21:05.698Z,40.48
2018-11-07T11:23:34.232Z,35.92
2018-11-07T11:26:02.296Z,43.42
2018-11-07T11:28:30.453Z,33.83
2018-11-07T11:30:58.711Z,48.68
2018-11-07T11:33:26.774Z,44.38
2018-11-07T11:35:54.771Z,35.10
2018-11-07T11:38:22.839Z,42.27
2018-11-07T11:40:50.911Z,39.42
2018-11-07T11:43:19.000Z,42.67
2018-11-07T11:45:47.064Z,42.30
2018-11-07T11:48:15.189Z,43.28
2018-11-07T11:50:43.238Z,42.55
2018-11-07T11:53:11.479Z,38.15
2018-11-07T11:55:39.544Z,40.03
2018-11-07T11:58:07.580Z,47.03
2018-11-07T12:00:35.822Z,37.45
2018-11-07T12:03:04.044Z,39.85
2018-11-07T12:05:32.066Z,43.85
2018-11-07T12:08:00.524Z,43.52
2018-11-07T12:10:28.567Z,35.60
2018-11-07T12:12:57.625Z,45.98
2018-11-07T12:15:27.089Z,36.23
2018-11-07T12:17:55.384Z,40.40
2018-11-07T12:20:23.457Z,37.03
2018-11-07T12:22:51.526Z,33.58
2018-11-07T12:25:20.371Z,39.42
2018-11-07T12:27:48.455Z,46.45
2018-11-07T12:30:19.944Z,38.33
2018-11-07T12:32:49.023Z,38.80
2018-11-07T12:35:17.708Z,36.80
2018-11-07T12:37:45.779Z,40.90
2018-11-07T12:40:14.353Z,43.15
2018-11-07T12:42:42.470Z,42.27
2018-11-07T12:45:11.841Z,37.45
2018-11-07T12:47:40.219Z,39.95
2018-11-07T12:50:10.241Z,36.05
2018-11-07T12:52:38.789Z,34.00
2018-11-07T12:55:07.396Z,33.75
2018-11-07T12:57:36.144Z,41.28
2018-11-07T13:00:04.248Z,37.10
2018-11-07T13:02:32.311Z,36.93
2018-11-07T13:05:00.374Z,37.80
2018-11-07T13:07:28.403Z,37.17
2018-11-07T13:09:56.504Z,38.35
2018-11-07T13:12:24.719Z,34.03
2018-11-07T13:14:53.092Z,39.75
2018-11-07T13:17:21.200Z,34.13
2018-11-07T13:19:53.208Z,40.70
2018-11-07T13:22:21.311Z,40.30
2018-11-07T13:24:49.429Z,33.58
2018-11-07T13:27:17.863Z,37.30
2018-11-07T13:29:46.079Z,38.63
2018-11-07T13:32:14.132Z,39.05
2018-11-07T13:34:42.406Z,37.88
2018-11-07T13:37:10.768Z,35.40
2018-11-07T13:39:38.821Z,37.93
2018-11-07T13:42:06.924Z,36.28
2018-11-07T13:44:34.968Z,41.05
2018-11-07T13:47:03.109Z,35.10
2018-11-07T13:49:31.183Z,38.50
2018-11-07T13:51:59.251Z,40.73
2018-11-07T13:54:27.275Z,42.25
2018-11-07T13:56:55.350Z,35.10
2018-11-07T13:59:23.458Z,45.48
2018-11-07T14:01:51.465Z,38.08
2018-11-07T14:04:19.539Z,47.73
2018-11-07T14:06:47.586Z,40.12
2018-11-07T14:09:16.552Z,40.80
2018-11-07T14:11:44.763Z,39.83
2018-11-07T14:14:12.831Z,41.95
2018-11-07T14:16:41.353Z,42.08
2018-11-07T14:19:11.036Z,37.73
2018-11-07T14:21:39.063Z,37.35
2018-11-07T14:24:07.205Z,36.90
2018-11-07T14:26:35.489Z,44.75
2018-11-07T14:29:03.524Z,39.40
2018-11-07T14:31:31.813Z,38.38
2018-11-07T14:34:00.124Z,42.50
2018-11-07T14:36:28.249Z,40.58
2018-11-07T14:38:56.383Z,39.20
2018-11-07T14:41:24.496Z,43.63
2018-11-07T14:43:52.598Z,37.65
2018-11-07T14:46:21.585Z,43.13
2018-11-07T14:48:50.191Z,36.00
2018-11-07T14:51:18.336Z,37.33
2018-11-07T14:53:46.659Z,39.78
2018-11-07T14:56:14.791Z,40.03
2018-11-07T14:58:42.856Z,36.90
2018-11-07T15:01:10.897Z,37.33
2018-11-07T15:03:38.966Z,37.20
2018-11-07T15:06:07.466Z,38.83
2018-11-07T15:08:35.548Z,42.27
2018-11-07T15:11:03.548Z,37.93
2018-11-07T15:13:31.582Z,39.18
2018-11-07T15:15:59.635Z,44.65
2018-11-07T15:18:28.801Z,41.35
2018-11-07T15:20:56.898Z,38.83
2018-11-07T15:23:24.956Z,42.73
2018-11-07T15:25:53.618Z,43.95
2018-11-07T15:28:21.636Z,45.33
2018-11-07T15:30:49.671Z,46.15
2018-11-07T15:33:17.988Z,44.35
2018-11-07T15:35:46.132Z,49.95
2018-11-07T15:38:14.233Z,41.18
2018-11-07T15:40:42.435Z,49.98
2018-11-07T15:43:10.626Z,43.52
2018-11-07T15:45:38.773Z,48.28
2018-11-07T15:48:07.328Z,52.80
2018-11-07T15:50:40.744Z,52.48
2018-11-07T15:53:08.990Z,44.25
2018-11-07T15:55:37.100Z,47.90
2018-11-07T15:58:05.655Z,50.40
2018-11-07T16:00:33.816Z,46.30
2018-11-07T16:03:01.932Z,42.60
2018-11-07T16:05:30.023Z,45.97
2018-11-07T16:07:58.049Z,47.00
2018-11-07T16:10:26.128Z,52.23
2018-11-07T16:12:54.387Z,55.63
2018-11-07T16:15:22.697Z,47.62
2018-11-07T16:17:50.734Z,50.93
2018-11-07T16:20:20.156Z,47.20
2018-11-07T16:22:49.042Z,54.93
2018-11-07T16:25:17.448Z,52.53
2018-11-07T16:27:45.884Z,61.05
2018-11-07T16:30:18.258Z,55.45
2018-11-07T16:32:46.702Z,55.97
2018-11-07T16:35:15.239Z,57.33
2018-11-07T16:37:45.009Z,59.83
2018-11-07T16:40:14.432Z,56.03
2018-11-07T16:42:43.179Z,47.55
2018-11-07T16:45:12.151Z,49.63
2018-11-07T16:47:41.283Z,53.70
2018-11-07T16:50:10.751Z,56.10
2018-11-07T16:52:39.097Z,53.20
2018-11-07T16:55:07.175Z,46.03
2018-11-07T16:57:35.847Z,52.43
2018-11-07T17:00:05.039Z,59.67
2018-11-07T17:02:33.257Z,57.87
2018-11-07T17:05:01.287Z,64.63
2018-11-07T17:07:29.470Z,50.63
2018-11-07T17:09:57.526Z,68.67
2018-11-07T17:12:25.611Z,54.87
2018-11-07T17:14:53.674Z,56.53
2018-11-07T17:17:21.742Z,64.77
2018-11-07T17:19:49.868Z,58.53
2018-11-07T17:22:18.348Z,59.33
2018-11-07T17:24:46.655Z,63.73
2018-11-07T17:27:14.689Z,57.43
2018-11-07T17:29:42.765Z,56.77
2018-11-07T17:32:10.829Z,60.17
2018-11-07T17:34:39.077Z,57.07
2018-11-07T17:37:08.421Z,56.00
2018-11-07T17:39:36.440Z,56.23
2018-11-07T17:42:04.695Z,57.17
2018-11-07T17:44:32.764Z,55.00
2018-11-07T17:47:00.939Z,57.27
2018-11-07T17:49:29.723Z,57.10
2018-11-07T17:51:58.042Z,74.97
2018-11-07T17:54:26.099Z,56.50
2018-11-07T17:56:54.187Z,63.47
2018-11-07T17:59:22.275Z,61.53
2018-11-07T18:01:50.366Z,47.90
2018-11-07T18:04:18.516Z,71.00
2018-11-07T18:06:46.760Z,51.03
2018-11-07T18:09:14.875Z,61.93
2018-11-07T18:11:42.903Z,57.20
2018-11-07T18:14:11.155Z,68.07
2018-11-07T18:16:39.345Z,62.97
2018-11-07T18:19:07.873Z,60.27
2018-11-07T18:21:36.516Z,58.10
2018-11-07T18:24:05.893Z,74.87
2018-11-07T18:26:33.903Z,57.93
2018-11-07T18:29:02.367Z,68.17
2018-11-07T18:31:30.415Z,60.87
2018-11-07T18:33:58.452Z,66.47
2018-11-07T18:36:26.527Z,67.83
2018-11-07T18:38:55.080Z,65.33
2018-11-07T18:41:23.110Z,62.33
2018-11-07T18:43:51.195Z,70.75
2018-11-07T18:46:19.493Z,59.90
2018-11-07T18:48:47.656Z,63.80
2018-11-07T18:51:15.704Z,69.87
2018-11-07T18:53:43.718Z,65.73
2018-11-07T18:56:11.740Z,61.73
2018-11-07T18:58:40.061Z,61.27
2018-11-07T19:01:08.315Z,69.37
2018-11-07T19:03:36.521Z,64.20
2018-11-07T19:06:04.640Z,61.03
2018-11-07T19:08:32.735Z,59.90
2018-11-07T19:11:00.764Z,78.60
2018-11-07T19:13:29.255Z,67.97
2018-11-07T19:15:57.290Z,68.90
2018-11-07T19:18:25.373Z,66.77
2018-11-07T19:20:53.463Z,69.50
2018-11-07T19:23:21.811Z,58.23
2018-11-07T19:25:50.199Z,85.63
2018-11-07T19:28:18.626Z,80.63
2018-11-07T19:30:46.654Z,73.03
2018-11-07T19:33:14.678Z,80.63
2018-11-07T19:35:43.767Z,66.50
2018-11-07T19:38:12.084Z,65.03
2018-11-07T19:40:40.107Z,68.40
2018-11-07T19:43:08.616Z,64.30
2018-11-07T19:45:36.731Z,65.57
2018-11-07T19:48:05.141Z,68.37
2018-11-07T19:50:33.314Z,75.07
2018-11-07T19:53:01.383Z,67.60
2018-11-07T19:55:29.437Z,68.70
2018-11-07T19:58:00.013Z,63.97
2018-11-07T20:00:28.076Z,70.13
2018-11-07T20:02:56.294Z,67.43
2018-11-07T20:05:24.379Z,77.10
2018-11-07T20:07:52.799Z,64.63
2018-11-07T20:10:21.803Z,68.93
2018-11-07T20:12:49.799Z,78.87
2018-11-07T20:15:18.768Z,72.27
2018-11-07T20:17:46.939Z,70.80
2018-11-07T20:20:15.259Z,72.03
2018-11-07T20:22:43.564Z,71.80
2018-11-07T20:25:12.568Z,67.33
2018-11-07T20:27:41.633Z,65.40
2018-11-07T20:30:11.428Z,76.03
2018-11-07T20:32:39.709Z,59.37
2018-11-07T20:35:09.747Z,85.60
2018-11-07T20:37:37.888Z,76.10
2018-11-07T20:40:07.869Z,70.87
2018-11-07T20:42:35.934Z,76.27
2018-11-07T20:45:04.507Z,63.70
2018-11-07T20:47:32.631Z,80.20
2018-11-07T20:50:00.674Z,70.83
2018-11-07T20:52:28.698Z,78.50
2018-11-07T20:54:56.904Z,70.43
2018-11-07T20:57:25.020Z,67.27
2018-11-07T20:59:53.076Z,66.53
2018-11-07T21:02:21.091Z,70.10
2018-11-07T21:04:49.136Z,65.50
2018-11-07T21:07:17.147Z,72.70
2018-11-07T21:09:45.155Z,72.37
2018-11-07T21:12:13.403Z,75.40
2018-11-07T21:14:41.458Z,71.53
2018-11-07T21:17:09.474Z,68.73
2018-11-07T21:19:37.814Z,66.37
2018-11-07T21:22:08.689Z,65.87
2018-11-07T21:24:36.726Z,68.73
2018-11-07T21:27:04.793Z,73.27
2018-11-07T21:29:33.171Z,68.30
2018-11-07T21:32:01.653Z,77.70
2018-11-07T21:34:29.825Z,76.73
2018-11-07T21:36:57.869Z,72.87
2018-11-07T21:39:25.904Z,72.83
2018-11-07T21:41:53.927Z,75.83
2018-11-07T21:44:22.011Z,76.67
2018-11-07T21:46:50.095Z,59.90
2018-11-07T21:49:18.135Z,71.00
2018-11-07T21:51:46.201Z,77.13
2018-11-07T21:54:14.382Z,73.37
2018-11-07T21:56:42.382Z,84.37
2018-11-07T21:59:10.391Z,72.43
2018-11-07T22:01:38.724Z,73.30
2018-11-07T22:04:07.385Z,71.43
2018-11-07T22:06:35.396Z,66.13
2018-11-07T22:09:04.378Z,61.53
2018-11-07T22:11:32.437Z,70.63
2018-11-07T22:14:00.598Z,63.60
2018-11-07T22:16:29.093Z,62.17
2018-11-07T22:18:57.111Z,68.33
2018-11-07T22:21:25.219Z,73.80
2018-11-07T22:23:53.499Z,66.90
2018-11-07T22:26:21.544Z,76.97
2018-11-07T22:28:49.638Z,79.53
2018-11-07T22:31:18.140Z,72.70
2018-11-07T22:33:46.170Z,72.40
2018-11-07T22:36:14.178Z,81.47
2018-11-07T22:38:42.259Z,64.93
2018-11-07T22:41:10.316Z,71.57
2018-11-07T22:43:38.387Z,74.03
2018-11-07T22:46:06.508Z,64.97
2018-11-07T22:48:34.570Z,69.57
2018-11-07T22:51:02.599Z,78.73
2018-11-07T22:53:30.775Z,72.37
2018-11-07T22:55:58.843Z,67.90
2018-11-07T22:58:26.949Z,64.27
2018-11-07T23:01:02.372Z,72.27
2018-11-07T23:03:30.936Z,69.57
2018-11-07T23:05:58.976Z,81.43
2018-11-07T23:08:27.255Z,70.10
2018-11-07T23:10:55.359Z,70.70
2018-11-07T23:13:23.387Z,77.00
2018-11-07T23:15:51.953Z,74.33
2018-11-07T23:18:20.395Z,71.37
2018-11-07T23:20:48.894Z,73.63
2018-11-07T23:23:17.363Z,80.10
2018-11-07T23:25:46.219Z,79.80
2018-11-07T23:28:14.399Z,74.37
2018-11-07T23:30:42.811Z,67.80
2018-11-07T23:33:11.210Z,65.33
2018-11-07T23:35:39.235Z,73.17
2018-11-07T23:38:07.275Z,63.20
2018-11-07T23:40:35.496Z,70.10
2018-11-07T23:43:03.530Z,75.30
2018-11-07T23:45:31.561Z,72.57
2018-11-07T23:47:59.696Z,64.00
2018-11-07T23:50:27.747Z,63.00
2018-11-07T23:52:55.816Z,60.07
2018-11-07T23:55:24.319Z,73.10
2018-11-07T23:57:53.011Z,70.30
